sensor_id;sensor_type;location;lat;lon;timestamp;P1;durP1;ratioP1;P2;durP2;ratioP2
13252;SDS011;6693;54.370;10.132;2024-03-08T00:00:59;11.95;;;4.88;;
13252;SDS011;6693;54.370;10.132;2024-03-08T00:02:03;12.02;;;5.18;;
13252;SDS011;6693;54.370;10.132;2024-03-08T00:03:04;12.50;;;5.30;;
13252;SDS011;6693;54.370;10.132;2024-03-08T00:04:10;12.77;;;4.40;;
13252;SDS011;6693;54.370;10.132;2024-03-08T00:05:12;13.65;;;5.07;;
13252;SDS011;6693;54.370;10.132;2024-03-08T00:06:18;11.23;;;4.78;;
13252;SDS011;6693;54.370;10.132;2024-03-08T00:07:19;11.20;;;4.63;;
13252;SDS011;6693;54.370;10.132;2024-03-08T00:08:20;12.98;;;4.93;;
13252;SDS011;6693;54.370;10.132;2024-03-08T00:09:25;10.40;;;4.50;;
13252;SDS011;6693;54.370;10.132;2024-03-08T00:10:27;12.82;;;5.43;;
13252;SDS011;6693;54.370;10.132;2024-03-08T00:11:31;11.40;;;5.07;;
13252;SDS011;6693;54.370;10.132;2024-03-08T00:12:35;12.65;;;4.85;;
13252;SDS011;6693;54.370;10.132;2024-03-08T00:13:38;11.55;;;4.50;;
13252;SDS011;6693;54.370;10.132;2024-03-08T00:14:39;11.52;;;4.55;;
13252;SDS011;6693;54.370;10.132;2024-03-08T00:15:47;12.57;;;5.28;;
13252;SDS011;6693;54.370;10.132;2024-03-08T00:16:48;11.80;;;4.63;;
13252;SDS011;6693;54.370;10.132;2024-03-08T00:17:52;13.23;;;4.82;;
13252;SDS011;6693;54.370;10.132;2024-03-08T00:18:53;11.55;;;4.13;;
13252;SDS011;6693;54.370;10.132;2024-03-08T00:19:59;13.65;;;4.65;;
13252;SDS011;6693;54.370;10.132;2024-03-08T00:21:00;13.55;;;5.22;;
13252;SDS011;6693;54.370;10.132;2024-03-08T00:22:04;11.70;;;3.90;;
13252;SDS011;6693;54.370;10.132;2024-03-08T00:23:08;12.10;;;4.65;;
13252;SDS011;6693;54.370;10.132;2024-03-08T00:24:12;12.57;;;4.68;;
13252;SDS011;6693;54.370;10.132;2024-03-08T00:25:13;12.18;;;4.82;;
13252;SDS011;6693;54.370;10.132;2024-03-08T00:26:16;9.05;;;3.25;;
13252;SDS011;6693;54.370;10.132;2024-03-08T00:27:17;11.90;;;4.95;;
13252;SDS011;6693;54.370;10.132;2024-03-08T00:28:22;9.38;;;3.90;;
13252;SDS011;6693;54.370;10.132;2024-03-08T00:29:25;10.32;;;4.20;;
13252;SDS011;6693;54.370;10.132;2024-03-08T00:30:30;12.13;;;4.28;;
13252;SDS011;6693;54.370;10.132;2024-03-08T00:31:34;11.88;;;4.80;;
13252;SDS011;6693;54.370;10.132;2024-03-08T00:32:37;9.85;;;4.03;;
13252;SDS011;6693;54.370;10.132;2024-03-08T00:33:38;12.45;;;4.55;;
13252;SDS011;6693;54.370;10.132;2024-03-08T00:34:42;11.57;;;4.95;;
13252;SDS011;6693;54.370;10.132;2024-03-08T00:35:43;11.07;;;4.38;;
13252;SDS011;6693;54.370;10.132;2024-03-08T00:36:47;13.48;;;4.80;;
13252;SDS011;6693;54.370;10.132;2024-03-08T00:37:49;11.60;;;4.60;;
13252;SDS011;6693;54.370;10.132;2024-03-08T00:38:52;11.23;;;3.97;;
13252;SDS011;6693;54.370;10.132;2024-03-08T00:39:53;12.07;;;4.82;;
13252;SDS011;6693;54.370;10.132;2024-03-08T00:40:57;11.50;;;4.47;;
13252;SDS011;6693;54.370;10.132;2024-03-08T00:41:58;11.95;;;4.30;;
13252;SDS011;6693;54.370;10.132;2024-03-08T00:43:02;11.38;;;5.05;;
13252;SDS011;6693;54.370;10.132;2024-03-08T00:44:05;13.70;;;4.30;;
13252;SDS011;6693;54.370;10.132;2024-03-08T00:45:10;11.75;;;5.00;;
13252;SDS011;6693;54.370;10.132;2024-03-08T00:46:12;13.20;;;4.78;;
13252;SDS011;6693;54.370;10.132;2024-03-08T00:47:18;12.65;;;4.40;;
13252;SDS011;6693;54.370;10.132;2024-03-08T00:48:20;12.98;;;4.72;;
13252;SDS011;6693;54.370;10.132;2024-03-08T00:49:23;12.43;;;5.07;;
13252;SDS011;6693;54.370;10.132;2024-03-08T00:50:24;13.05;;;5.40;;
13252;SDS011;6693;54.370;10.132;2024-03-08T00:51:28;13.15;;;4.85;;
13252;SDS011;6693;54.370;10.132;2024-03-08T00:52:29;13.82;;;5.30;;
13252;SDS011;6693;54.370;10.132;2024-03-08T00:53:30;13.68;;;4.65;;
13252;SDS011;6693;54.370;10.132;2024-03-08T00:54:33;12.50;;;4.38;;
13252;SDS011;6693;54.370;10.132;2024-03-08T00:55:36;12.45;;;4.00;;
13252;SDS011;6693;54.370;10.132;2024-03-08T00:56:40;12.73;;;5.40;;
13252;SDS011;6693;54.370;10.132;2024-03-08T00:57:40;10.90;;;4.60;;
13252;SDS011;6693;54.370;10.132;2024-03-08T00:58:44;13.73;;;5.07;;
13252;SDS011;6693;54.370;10.132;2024-03-08T00:59:45;13.55;;;4.88;;
13252;SDS011;6693;54.370;10.132;2024-03-08T01:00:49;19.13;;;5.60;;
13252;SDS011;6693;54.370;10.132;2024-03-08T01:01:51;11.50;;;5.07;;
13252;SDS011;6693;54.370;10.132;2024-03-08T01:02:57;11.85;;;5.10;;
13252;SDS011;6693;54.370;10.132;2024-03-08T01:03:59;13.18;;;4.63;;
13252;SDS011;6693;54.370;10.132;2024-03-08T01:05:02;14.73;;;5.18;;
13252;SDS011;6693;54.370;10.132;2024-03-08T01:06:04;13.05;;;4.88;;
13252;SDS011;6693;54.370;10.132;2024-03-08T01:07:11;11.82;;;4.50;;
13252;SDS011;6693;54.370;10.132;2024-03-08T01:08:12;13.30;;;5.18;;
13252;SDS011;6693;54.370;10.132;2024-03-08T01:09:16;12.63;;;5.15;;
13252;SDS011;6693;54.370;10.132;2024-03-08T01:10:17;12.55;;;4.93;;
13252;SDS011;6693;54.370;10.132;2024-03-08T01:11:21;13.50;;;5.22;;
13252;SDS011;6693;54.370;10.132;2024-03-08T01:12:22;11.77;;;5.05;;
13252;SDS011;6693;54.370;10.132;2024-03-08T01:13:25;12.70;;;5.03;;
13252;SDS011;6693;54.370;10.132;2024-03-08T01:14:27;13.00;;;5.38;;
13252;SDS011;6693;54.370;10.132;2024-03-08T01:15:31;14.15;;;5.53;;
13252;SDS011;6693;54.370;10.132;2024-03-08T01:16:32;13.60;;;4.60;;
13252;SDS011;6693;54.370;10.132;2024-03-08T01:17:36;12.60;;;4.68;;
13252;SDS011;6693;54.370;10.132;2024-03-08T01:18:40;13.93;;;5.22;;
13252;SDS011;6693;54.370;10.132;2024-03-08T01:19:44;15.02;;;4.82;;
13252;SDS011;6693;54.370;10.132;2024-03-08T01:20:45;15.55;;;5.15;;
13252;SDS011;6693;54.370;10.132;2024-03-08T01:21:49;14.15;;;5.35;;
13252;SDS011;6693;54.370;10.132;2024-03-08T01:22:51;15.30;;;5.68;;
13252;SDS011;6693;54.370;10.132;2024-03-08T01:23:55;13.00;;;5.13;;
13252;SDS011;6693;54.370;10.132;2024-03-08T01:24:55;13.70;;;4.97;;
13252;SDS011;6693;54.370;10.132;2024-03-08T01:25:59;12.98;;;5.20;;
13252;SDS011;6693;54.370;10.132;2024-03-08T01:27:02;14.18;;;5.45;;
13252;SDS011;6693;54.370;10.132;2024-03-08T01:28:08;12.80;;;4.95;;
13252;SDS011;6693;54.370;10.132;2024-03-08T01:29:09;14.27;;;4.25;;
13252;SDS011;6693;54.370;10.132;2024-03-08T01:30:13;15.68;;;6.07;;
13252;SDS011;6693;54.370;10.132;2024-03-08T01:31:17;13.95;;;5.53;;
13252;SDS011;6693;54.370;10.132;2024-03-08T01:32:21;15.07;;;5.95;;
13252;SDS011;6693;54.370;10.132;2024-03-08T01:33:23;14.38;;;5.93;;
13252;SDS011;6693;54.370;10.132;2024-03-08T01:34:32;13.20;;;5.43;;
13252;SDS011;6693;54.370;10.132;2024-03-08T01:35:33;12.98;;;5.22;;
13252;SDS011;6693;54.370;10.132;2024-03-08T01:36:36;15.88;;;5.30;;
13252;SDS011;6693;54.370;10.132;2024-03-08T01:37:37;13.95;;;5.57;;
13252;SDS011;6693;54.370;10.132;2024-03-08T01:38:41;15.98;;;5.40;;
13252;SDS011;6693;54.370;10.132;2024-03-08T01:39:42;14.88;;;5.25;;
13252;SDS011;6693;54.370;10.132;2024-03-08T01:40:47;13.95;;;5.30;;
13252;SDS011;6693;54.370;10.132;2024-03-08T01:41:48;14.20;;;5.53;;
13252;SDS011;6693;54.370;10.132;2024-03-08T01:42:54;17.08;;;6.03;;
13252;SDS011;6693;54.370;10.132;2024-03-08T01:43:55;15.77;;;5.93;;
13252;SDS011;6693;54.370;10.132;2024-03-08T01:44:59;14.90;;;5.47;;
13252;SDS011;6693;54.370;10.132;2024-03-08T01:46:00;15.20;;;6.00;;
13252;SDS011;6693;54.370;10.132;2024-03-08T01:47:05;15.45;;;5.68;;
13252;SDS011;6693;54.370;10.132;2024-03-08T01:48:06;14.43;;;5.72;;
13252;SDS011;6693;54.370;10.132;2024-03-08T01:49:10;15.43;;;5.65;;
13252;SDS011;6693;54.370;10.132;2024-03-08T01:50:15;15.85;;;6.38;;
13252;SDS011;6693;54.370;10.132;2024-03-08T01:51:19;14.40;;;4.95;;
13252;SDS011;6693;54.370;10.132;2024-03-08T01:52:20;15.63;;;6.47;;
13252;SDS011;6693;54.370;10.132;2024-03-08T01:53:25;15.77;;;5.97;;
13252;SDS011;6693;54.370;10.132;2024-03-08T01:54:27;15.45;;;6.10;;
13252;SDS011;6693;54.370;10.132;2024-03-08T01:55:30;15.85;;;5.90;;
13252;SDS011;6693;54.370;10.132;2024-03-08T01:56:31;15.57;;;6.45;;
13252;SDS011;6693;54.370;10.132;2024-03-08T01:57:32;12.10;;;5.43;;
13252;SDS011;6693;54.370;10.132;2024-03-08T01:58:38;14.57;;;5.72;;
13252;SDS011;6693;54.370;10.132;2024-03-08T01:59:39;15.02;;;5.53;;
13252;SDS011;6693;54.370;10.132;2024-03-08T02:00:44;16.60;;;6.32;;
13252;SDS011;6693;54.370;10.132;2024-03-08T02:01:45;14.43;;;5.43;;
13252;SDS011;6693;54.370;10.132;2024-03-08T02:02:49;16.15;;;5.90;;
13252;SDS011;6693;54.370;10.132;2024-03-08T02:03:51;14.05;;;5.47;;
13252;SDS011;6693;54.370;10.132;2024-03-08T02:04:55;15.00;;;6.15;;
13252;SDS011;6693;54.370;10.132;2024-03-08T02:05:59;17.05;;;6.25;;
13252;SDS011;6693;54.370;10.132;2024-03-08T02:07:02;16.90;;;6.30;;
13252;SDS011;6693;54.370;10.132;2024-03-08T02:08:06;19.90;;;6.38;;
13252;SDS011;6693;54.370;10.132;2024-03-08T02:09:12;15.75;;;5.60;;
13252;SDS011;6693;54.370;10.132;2024-03-08T02:10:13;15.60;;;6.50;;
13252;SDS011;6693;54.370;10.132;2024-03-08T02:11:17;19.23;;;6.35;;
13252;SDS011;6693;54.370;10.132;2024-03-08T02:12:21;18.13;;;6.47;;
13252;SDS011;6693;54.370;10.132;2024-03-08T02:13:24;16.25;;;8.77;;
13252;SDS011;6693;54.370;10.132;2024-03-08T02:14:25;19.52;;;6.50;;
13252;SDS011;6693;54.370;10.132;2024-03-08T02:16:53;15.60;;;6.18;;
13252;SDS011;6693;54.370;10.132;2024-03-08T02:17:58;15.07;;;5.63;;
13252;SDS011;6693;54.370;10.132;2024-03-08T02:18:59;16.77;;;7.05;;
13252;SDS011;6693;54.370;10.132;2024-03-08T02:20:04;14.88;;;5.97;;
13252;SDS011;6693;54.370;10.132;2024-03-08T02:21:08;16.60;;;6.93;;
13252;SDS011;6693;54.370;10.132;2024-03-08T02:22:12;19.40;;;6.70;;
13252;SDS011;6693;54.370;10.132;2024-03-08T02:23:13;18.88;;;6.97;;
13252;SDS011;6693;54.370;10.132;2024-03-08T02:24:14;18.42;;;6.60;;
13252;SDS011;6693;54.370;10.132;2024-03-08T02:25:19;17.33;;;6.80;;
13252;SDS011;6693;54.370;10.132;2024-03-08T02:26:20;19.02;;;7.20;;
13252;SDS011;6693;54.370;10.132;2024-03-08T02:27:24;19.65;;;6.53;;
13252;SDS011;6693;54.370;10.132;2024-03-08T02:28:25;15.88;;;6.82;;
13252;SDS011;6693;54.370;10.132;2024-03-08T02:29:31;18.95;;;7.38;;
13252;SDS011;6693;54.370;10.132;2024-03-08T02:30:32;20.42;;;6.97;;
13252;SDS011;6693;54.370;10.132;2024-03-08T02:31:36;16.50;;;7.10;;
13252;SDS011;6693;54.370;10.132;2024-03-08T02:32:36;16.67;;;7.20;;
13252;SDS011;6693;54.370;10.132;2024-03-08T02:33:40;16.38;;;6.85;;
13252;SDS011;6693;54.370;10.132;2024-03-08T02:34:43;19.27;;;7.05;;
13252;SDS011;6693;54.370;10.132;2024-03-08T02:35:47;17.70;;;6.43;;
13252;SDS011;6693;54.370;10.132;2024-03-08T02:36:52;17.35;;;7.10;;
13252;SDS011;6693;54.370;10.132;2024-03-08T02:37:57;20.35;;;7.28;;
13252;SDS011;6693;54.370;10.132;2024-03-08T02:38:58;17.80;;;6.85;;
13252;SDS011;6693;54.370;10.132;2024-03-08T02:40:02;20.10;;;6.80;;
13252;SDS011;6693;54.370;10.132;2024-03-08T02:41:04;18.35;;;6.95;;
13252;SDS011;6693;54.370;10.132;2024-03-08T02:42:08;18.67;;;7.70;;
13252;SDS011;6693;54.370;10.132;2024-03-08T02:43:09;18.77;;;7.15;;
13252;SDS011;6693;54.370;10.132;2024-03-08T02:44:12;16.83;;;6.60;;
13252;SDS011;6693;54.370;10.132;2024-03-08T02:45:15;19.00;;;7.05;;
13252;SDS011;6693;54.370;10.132;2024-03-08T02:46:18;18.38;;;7.32;;
13252;SDS011;6693;54.370;10.132;2024-03-08T02:47:20;16.23;;;7.13;;
13252;SDS011;6693;54.370;10.132;2024-03-08T02:48:26;19.20;;;7.55;;
13252;SDS011;6693;54.370;10.132;2024-03-08T02:49:29;19.02;;;7.70;;
13252;SDS011;6693;54.370;10.132;2024-03-08T02:50:34;16.58;;;7.00;;
13252;SDS011;6693;54.370;10.132;2024-03-08T02:51:36;19.80;;;7.45;;
13252;SDS011;6693;54.370;10.132;2024-03-08T02:52:43;18.83;;;6.90;;
13252;SDS011;6693;54.370;10.132;2024-03-08T02:53:46;15.50;;;5.75;;
13252;SDS011;6693;54.370;10.132;2024-03-08T02:54:51;19.63;;;7.80;;
13252;SDS011;6693;54.370;10.132;2024-03-08T02:55:54;17.30;;;7.05;;
13252;SDS011;6693;54.370;10.132;2024-03-08T02:56:58;17.98;;;7.15;;
13252;SDS011;6693;54.370;10.132;2024-03-08T02:57:59;17.45;;;6.47;;
13252;SDS011;6693;54.370;10.132;2024-03-08T02:59:03;18.13;;;6.88;;
13252;SDS011;6693;54.370;10.132;2024-03-08T03:00:07;16.83;;;7.50;;
13252;SDS011;6693;54.370;10.132;2024-03-08T03:01:13;21.25;;;8.23;;
13252;SDS011;6693;54.370;10.132;2024-03-08T03:02:14;17.13;;;6.80;;
13252;SDS011;6693;54.370;10.132;2024-03-08T03:03:18;16.35;;;7.00;;
13252;SDS011;6693;54.370;10.132;2024-03-08T03:04:19;16.83;;;6.95;;
13252;SDS011;6693;54.370;10.132;2024-03-08T03:05:23;19.13;;;7.07;;
13252;SDS011;6693;54.370;10.132;2024-03-08T03:06:24;18.40;;;7.63;;
13252;SDS011;6693;54.370;10.132;2024-03-08T03:07:28;19.02;;;8.02;;
13252;SDS011;6693;54.370;10.132;2024-03-08T03:08:33;17.23;;;7.05;;
13252;SDS011;6693;54.370;10.132;2024-03-08T03:09:34;15.02;;;5.63;;
13252;SDS011;6693;54.370;10.132;2024-03-08T03:10:37;16.10;;;6.25;;
13252;SDS011;6693;54.370;10.132;2024-03-08T03:11:39;19.17;;;7.68;;
13252;SDS011;6693;54.370;10.132;2024-03-08T03:12:43;15.23;;;6.55;;
13252;SDS011;6693;54.370;10.132;2024-03-08T03:13:44;19.90;;;7.13;;
13252;SDS011;6693;54.370;10.132;2024-03-08T03:14:48;18.20;;;6.80;;
13252;SDS011;6693;54.370;10.132;2024-03-08T03:15:53;20.00;;;7.93;;
13252;SDS011;6693;54.370;10.132;2024-03-08T03:16:58;20.70;;;8.20;;
13252;SDS011;6693;54.370;10.132;2024-03-08T03:18:03;20.48;;;7.70;;
13252;SDS011;6693;54.370;10.132;2024-03-08T03:19:08;18.73;;;7.82;;
13252;SDS011;6693;54.370;10.132;2024-03-08T03:20:10;23.77;;;8.45;;
13252;SDS011;6693;54.370;10.132;2024-03-08T03:21:14;17.25;;;6.32;;
13252;SDS011;6693;54.370;10.132;2024-03-08T03:22:15;21.73;;;8.93;;
13252;SDS011;6693;54.370;10.132;2024-03-08T03:23:18;21.58;;;7.95;;
13252;SDS011;6693;54.370;10.132;2024-03-08T03:25:29;14.40;;;5.68;;
13252;SDS011;6693;54.370;10.132;2024-03-08T03:26:35;23.08;;;8.40;;
13252;SDS011;6693;54.370;10.132;2024-03-08T03:27:39;21.08;;;7.60;;
13252;SDS011;6693;54.370;10.132;2024-03-08T03:28:40;22.55;;;8.70;;
13252;SDS011;6693;54.370;10.132;2024-03-08T03:29:41;20.98;;;8.63;;
13252;SDS011;6693;54.370;10.132;2024-03-08T03:30:45;18.10;;;6.97;;
13252;SDS011;6693;54.370;10.132;2024-03-08T03:31:46;20.08;;;7.68;;
13252;SDS011;6693;54.370;10.132;2024-03-08T03:32:50;22.35;;;8.75;;
13252;SDS011;6693;54.370;10.132;2024-03-08T03:33:51;18.15;;;7.45;;
13252;SDS011;6693;54.370;10.132;2024-03-08T03:34:55;17.35;;;7.30;;
13252;SDS011;6693;54.370;10.132;2024-03-08T03:35:55;21.58;;;8.93;;
13252;SDS011;6693;54.370;10.132;2024-03-08T03:36:59;21.65;;;8.60;;
13252;SDS011;6693;54.370;10.132;2024-03-08T03:38:00;22.75;;;8.07;;
13252;SDS011;6693;54.370;10.132;2024-03-08T03:39:08;21.48;;;8.00;;
13252;SDS011;6693;54.370;10.132;2024-03-08T03:40:15;22.42;;;8.65;;
13252;SDS011;6693;54.370;10.132;2024-03-08T03:41:23;20.98;;;8.40;;
13252;SDS011;6693;54.370;10.132;2024-03-08T03:42:24;20.55;;;8.75;;
13252;SDS011;6693;54.370;10.132;2024-03-08T03:43:28;17.65;;;6.93;;
13252;SDS011;6693;54.370;10.132;2024-03-08T03:44:29;19.67;;;7.90;;
13252;SDS011;6693;54.370;10.132;2024-03-08T03:45:38;23.13;;;10.07;;
13252;SDS011;6693;54.370;10.132;2024-03-08T03:46:41;21.23;;;7.90;;
13252;SDS011;6693;54.370;10.132;2024-03-08T03:47:47;22.48;;;9.15;;
13252;SDS011;6693;54.370;10.132;2024-03-08T03:48:48;19.95;;;7.72;;
13252;SDS011;6693;54.370;10.132;2024-03-08T03:49:51;22.35;;;9.52;;
13252;SDS011;6693;54.370;10.132;2024-03-08T03:50:53;25.08;;;8.90;;
13252;SDS011;6693;54.370;10.132;2024-03-08T03:51:57;22.67;;;8.93;;
13252;SDS011;6693;54.370;10.132;2024-03-08T03:52:58;21.83;;;8.93;;
13252;SDS011;6693;54.370;10.132;2024-03-08T03:54:02;19.83;;;8.00;;
13252;SDS011;6693;54.370;10.132;2024-03-08T03:55:04;19.67;;;7.68;;
13252;SDS011;6693;54.370;10.132;2024-03-08T03:56:08;19.80;;;7.35;;
13252;SDS011;6693;54.370;10.132;2024-03-08T03:57:12;18.63;;;8.05;;
13252;SDS011;6693;54.370;10.132;2024-03-08T03:58:13;20.55;;;7.38;;
13252;SDS011;6693;54.370;10.132;2024-03-08T03:59:22;22.77;;;8.70;;
13252;SDS011;6693;54.370;10.132;2024-03-08T04:00:24;26.38;;;10.45;;
13252;SDS011;6693;54.370;10.132;2024-03-08T04:01:28;23.33;;;9.55;;
13252;SDS011;6693;54.370;10.132;2024-03-08T04:02:29;24.13;;;9.60;;
13252;SDS011;6693;54.370;10.132;2024-03-08T04:03:33;21.17;;;8.02;;
13252;SDS011;6693;54.370;10.132;2024-03-08T04:04:34;23.33;;;10.57;;
13252;SDS011;6693;54.370;10.132;2024-03-08T04:05:37;21.73;;;9.02;;
13252;SDS011;6693;54.370;10.132;2024-03-08T04:06:39;16.70;;;8.10;;
13252;SDS011;6693;54.370;10.132;2024-03-08T04:07:44;27.33;;;10.40;;
13252;SDS011;6693;54.370;10.132;2024-03-08T04:08:45;27.30;;;10.85;;
13252;SDS011;6693;54.370;10.132;2024-03-08T04:09:50;23.92;;;9.30;;
13252;SDS011;6693;54.370;10.132;2024-03-08T04:10:50;19.88;;;8.50;;
13252;SDS011;6693;54.370;10.132;2024-03-08T04:11:57;21.13;;;8.52;;
13252;SDS011;6693;54.370;10.132;2024-03-08T04:12:58;19.63;;;8.35;;
13252;SDS011;6693;54.370;10.132;2024-03-08T04:13:59;20.65;;;8.25;;
13252;SDS011;6693;54.370;10.132;2024-03-08T04:15:03;24.48;;;8.77;;
13252;SDS011;6693;54.370;10.132;2024-03-08T04:16:07;23.08;;;9.68;;
13252;SDS011;6693;54.370;10.132;2024-03-08T04:17:11;19.05;;;7.70;;
13252;SDS011;6693;54.370;10.132;2024-03-08T04:18:12;25.60;;;9.75;;
13252;SDS011;6693;54.370;10.132;2024-03-08T04:19:16;24.10;;;10.20;;
13252;SDS011;6693;54.370;10.132;2024-03-08T04:20:17;20.65;;;8.88;;
13252;SDS011;6693;54.370;10.132;2024-03-08T04:21:21;22.23;;;8.80;;
13252;SDS011;6693;54.370;10.132;2024-03-08T04:22:22;17.98;;;7.03;;
13252;SDS011;6693;54.370;10.132;2024-03-08T04:23:28;22.98;;;9.68;;
13252;SDS011;6693;54.370;10.132;2024-03-08T04:24:29;22.48;;;9.88;;
13252;SDS011;6693;54.370;10.132;2024-03-08T04:25:33;24.42;;;10.13;;
13252;SDS011;6693;54.370;10.132;2024-03-08T04:26:34;17.45;;;7.45;;
13252;SDS011;6693;54.370;10.132;2024-03-08T04:27:41;20.98;;;8.32;;
13252;SDS011;6693;54.370;10.132;2024-03-08T04:28:41;22.67;;;9.05;;
13252;SDS011;6693;54.370;10.132;2024-03-08T04:29:45;24.65;;;9.73;;
13252;SDS011;6693;54.370;10.132;2024-03-08T04:30:47;23.40;;;10.27;;
13252;SDS011;6693;54.370;10.132;2024-03-08T04:31:51;23.95;;;9.80;;
13252;SDS011;6693;54.370;10.132;2024-03-08T04:32:54;24.45;;;9.20;;
13252;SDS011;6693;54.370;10.132;2024-03-08T04:33:57;25.27;;;10.57;;
13252;SDS011;6693;54.370;10.132;2024-03-08T04:34:58;19.83;;;7.70;;
13252;SDS011;6693;54.370;10.132;2024-03-08T04:36:03;16.98;;;7.22;;
13252;SDS011;6693;54.370;10.132;2024-03-08T04:37:04;19.73;;;7.80;;
13252;SDS011;6693;54.370;10.132;2024-03-08T04:38:05;19.38;;;7.85;;
13252;SDS011;6693;54.370;10.132;2024-03-08T04:39:10;22.52;;;8.63;;
13252;SDS011;6693;54.370;10.132;2024-03-08T04:40:14;17.52;;;6.75;;
13252;SDS011;6693;54.370;10.132;2024-03-08T04:41:19;24.77;;;9.95;;
13252;SDS011;6693;54.370;10.132;2024-03-08T04:42:20;25.33;;;9.88;;
13252;SDS011;6693;54.370;10.132;2024-03-08T04:43:28;24.63;;;10.32;;
13252;SDS011;6693;54.370;10.132;2024-03-08T04:44:30;22.45;;;9.52;;
13252;SDS011;6693;54.370;10.132;2024-03-08T04:45:34;22.67;;;9.43;;
13252;SDS011;6693;54.370;10.132;2024-03-08T04:46:35;22.65;;;10.07;;
13252;SDS011;6693;54.370;10.132;2024-03-08T04:47:39;25.08;;;9.65;;
13252;SDS011;6693;54.370;10.132;2024-03-08T04:48:40;22.70;;;9.52;;
13252;SDS011;6693;54.370;10.132;2024-03-08T04:49:46;23.77;;;9.63;;
13252;SDS011;6693;54.370;10.132;2024-03-08T04:50:47;19.25;;;7.82;;
13252;SDS011;6693;54.370;10.132;2024-03-08T04:51:50;23.73;;;9.80;;
13252;SDS011;6693;54.370;10.132;2024-03-08T04:52:51;23.55;;;9.80;;
13252;SDS011;6693;54.370;10.132;2024-03-08T04:53:55;25.02;;;10.10;;
13252;SDS011;6693;54.370;10.132;2024-03-08T04:56:00;24.00;;;9.38;;
13252;SDS011;6693;54.370;10.132;2024-03-08T04:57:06;22.92;;;9.23;;
13252;SDS011;6693;54.370;10.132;2024-03-08T04:58:07;18.63;;;8.35;;
13252;SDS011;6693;54.370;10.132;2024-03-08T04:59:13;25.98;;;9.68;;
13252;SDS011;6693;54.370;10.132;2024-03-08T05:00:15;20.23;;;7.10;;
13252;SDS011;6693;54.370;10.132;2024-03-08T05:01:20;22.92;;;9.65;;
13252;SDS011;6693;54.370;10.132;2024-03-08T05:02:24;17.73;;;8.10;;
13252;SDS011;6693;54.370;10.132;2024-03-08T05:03:24;25.17;;;10.02;;
13252;SDS011;6693;54.370;10.132;2024-03-08T05:04:31;22.58;;;9.68;;
13252;SDS011;6693;54.370;10.132;2024-03-08T05:05:33;17.92;;;8.07;;
13252;SDS011;6693;54.370;10.132;2024-03-08T05:06:36;24.88;;;10.32;;
13252;SDS011;6693;54.370;10.132;2024-03-08T05:07:37;21.17;;;8.77;;
13252;SDS011;6693;54.370;10.132;2024-03-08T05:08:41;22.95;;;9.80;;
13252;SDS011;6693;54.370;10.132;2024-03-08T05:09:42;25.65;;;10.32;;
13252;SDS011;6693;54.370;10.132;2024-03-08T05:10:51;22.55;;;8.55;;
13252;SDS011;6693;54.370;10.132;2024-03-08T05:11:52;21.77;;;8.38;;
13252;SDS011;6693;54.370;10.132;2024-03-08T05:12:58;18.55;;;8.68;;
13252;SDS011;6693;54.370;10.132;2024-03-08T05:14:02;20.95;;;8.00;;
13252;SDS011;6693;54.370;10.132;2024-03-08T05:15:06;22.63;;;9.02;;
13252;SDS011;6693;54.370;10.132;2024-03-08T05:16:10;20.65;;;8.48;;
13252;SDS011;6693;54.370;10.132;2024-03-08T05:17:12;19.30;;;8.40;;
13252;SDS011;6693;54.370;10.132;2024-03-08T05:18:15;18.13;;;8.10;;
13252;SDS011;6693;54.370;10.132;2024-03-08T05:19:16;24.20;;;9.55;;
13252;SDS011;6693;54.370;10.132;2024-03-08T05:20:20;20.75;;;9.02;;
13252;SDS011;6693;54.370;10.132;2024-03-08T05:21:22;20.27;;;7.95;;
13252;SDS011;6693;54.370;10.132;2024-03-08T05:22:26;17.33;;;6.97;;
13252;SDS011;6693;54.370;10.132;2024-03-08T05:23:29;18.50;;;7.78;;
13252;SDS011;6693;54.370;10.132;2024-03-08T05:24:34;18.65;;;7.13;;
13252;SDS011;6693;54.370;10.132;2024-03-08T05:25:35;16.27;;;6.60;;
13252;SDS011;6693;54.370;10.132;2024-03-08T05:26:39;20.83;;;8.75;;
13252;SDS011;6693;54.370;10.132;2024-03-08T05:27:40;16.75;;;7.65;;
13252;SDS011;6693;54.370;10.132;2024-03-08T05:28:42;19.40;;;8.50;;
13252;SDS011;6693;54.370;10.132;2024-03-08T05:29:45;17.45;;;7.93;;
13252;SDS011;6693;54.370;10.132;2024-03-08T05:30:49;20.98;;;8.82;;
13252;SDS011;6693;54.370;10.132;2024-03-08T05:31:53;19.13;;;7.72;;
13252;SDS011;6693;54.370;10.132;2024-03-08T05:32:57;17.27;;;6.57;;
13252;SDS011;6693;54.370;10.132;2024-03-08T05:34:01;15.93;;;6.68;;
13252;SDS011;6693;54.370;10.132;2024-03-08T05:35:02;20.25;;;8.25;;
13252;SDS011;6693;54.370;10.132;2024-03-08T05:36:07;20.05;;;8.13;;
13252;SDS011;6693;54.370;10.132;2024-03-08T05:37:11;19.45;;;8.38;;
13252;SDS011;6693;54.370;10.132;2024-03-08T05:38:12;18.48;;;6.97;;
13252;SDS011;6693;54.370;10.132;2024-03-08T05:39:17;18.27;;;8.40;;
13252;SDS011;6693;54.370;10.132;2024-03-08T05:40:18;21.08;;;8.50;;
13252;SDS011;6693;54.370;10.132;2024-03-08T05:41:23;17.73;;;7.45;;
13252;SDS011;6693;54.370;10.132;2024-03-08T05:42:23;20.30;;;8.00;;
13252;SDS011;6693;54.370;10.132;2024-03-08T05:43:29;16.73;;;7.82;;
13252;SDS011;6693;54.370;10.132;2024-03-08T05:44:33;18.25;;;7.97;;
13252;SDS011;6693;54.370;10.132;2024-03-08T05:45:37;20.13;;;8.45;;
13252;SDS011;6693;54.370;10.132;2024-03-08T05:46:40;19.67;;;8.57;;
13252;SDS011;6693;54.370;10.132;2024-03-08T05:47:44;19.17;;;7.50;;
13252;SDS011;6693;54.370;10.132;2024-03-08T05:48:46;19.05;;;8.00;;
13252;SDS011;6693;54.370;10.132;2024-03-08T05:49:52;16.38;;;6.47;;
13252;SDS011;6693;54.370;10.132;2024-03-08T05:50:53;18.05;;;7.40;;
13252;SDS011;6693;54.370;10.132;2024-03-08T05:51:57;17.42;;;7.78;;
13252;SDS011;6693;54.370;10.132;2024-03-08T05:52:58;15.73;;;6.70;;
13252;SDS011;6693;54.370;10.132;2024-03-08T05:54:01;17.42;;;8.07;;
13252;SDS011;6693;54.370;10.132;2024-03-08T05:55:06;19.08;;;8.13;;
13252;SDS011;6693;54.370;10.132;2024-03-08T05:56:10;19.17;;;8.07;;
13252;SDS011;6693;54.370;10.132;2024-03-08T05:57:11;14.45;;;6.10;;
13252;SDS011;6693;54.370;10.132;2024-03-08T05:58:14;17.65;;;6.90;;
13252;SDS011;6693;54.370;10.132;2024-03-08T05:59:15;20.52;;;8.35;;
13252;SDS011;6693;54.370;10.132;2024-03-08T06:00:19;18.73;;;7.18;;
13252;SDS011;6693;54.370;10.132;2024-03-08T06:01:20;17.83;;;7.35;;
13252;SDS011;6693;54.370;10.132;2024-03-08T06:02:27;18.85;;;8.43;;
13252;SDS011;6693;54.370;10.132;2024-03-08T06:03:29;19.50;;;8.02;;
13252;SDS011;6693;54.370;10.132;2024-03-08T06:04:33;15.25;;;7.35;;
13252;SDS011;6693;54.370;10.132;2024-03-08T06:05:34;17.45;;;7.53;;
13252;SDS011;6693;54.370;10.132;2024-03-08T06:06:42;18.20;;;6.05;;
13252;SDS011;6693;54.370;10.132;2024-03-08T06:07:43;19.83;;;9.18;;
13252;SDS011;6693;54.370;10.132;2024-03-08T06:08:46;18.02;;;7.30;;
13252;SDS011;6693;54.370;10.132;2024-03-08T06:09:49;18.13;;;7.68;;
13252;SDS011;6693;54.370;10.132;2024-03-08T06:10:52;18.05;;;7.97;;
13252;SDS011;6693;54.370;10.132;2024-03-08T06:11:53;19.08;;;9.02;;
13252;SDS011;6693;54.370;10.132;2024-03-08T06:12:57;18.88;;;7.90;;
13252;SDS011;6693;54.370;10.132;2024-03-08T06:13:58;18.02;;;7.47;;
13252;SDS011;6693;54.370;10.132;2024-03-08T06:15:03;20.60;;;8.73;;
13252;SDS011;6693;54.370;10.132;2024-03-08T06:16:04;19.92;;;8.65;;
13252;SDS011;6693;54.370;10.132;2024-03-08T06:17:08;25.00;;;8.68;;
13252;SDS011;6693;54.370;10.132;2024-03-08T06:18:12;21.55;;;9.25;;